Terminal Aerodrome Forecast
Issued by NWS

Home | Current Version | Previous Version | Text Only | Print | Product List | Glossary On
Versions: 1 2 3 4 5 6 7 8 9 10 11 12 13 14 15 16 17
271
FTUS41 KCAR 041720
TAFFVE
TAF
KFVE 041720Z 0418/0518 32009KT P6SM BKN015
     FM041900 32008KT P6SM BKN025
     FM042100 32007KT P6SM SCT040=

USA.gov is the U.S. government's official web portal to all federal, state and local government web resources and services.